Time;durP1;ratioP1;P1;durP2;ratioP2;P2;SDS_P1;SDS_P2;PMS_P1;PMS_P2;Temp;Humidity;BMP_temperature;BMP_pressure;BME280_temperature;BME280_humidity;BME280_pressure;Samples;Min_cycle;Max_cycle;Signal;HPM_P1;HPM_P2
2021/04/25 00:00:18;;;;;;;1.33;1.10;;;9.80;53.90;;;;;;4374839;32;20133;-36
2021/04/25 00:02:45;;;;;;;1.42;0.90;;;9.70;54.20;;;;;;4375212;32;20074;-37
2021/04/25 00:05:13;;;;;;;1.00;0.80;;;9.70;54.60;;;;;;4361435;32;20077;-33
2021/04/25 00:07:40;;;;;;;1.55;0.75;;;9.60;55.00;;;;;;4375325;32;20525;-34
2021/04/25 00:10:07;;;;;;;1.10;0.70;;;9.60;55.50;;;;;;4375095;32;20139;-34
2021/04/25 00:12:34;;;;;;;0.90;0.60;;;9.50;55.70;;;;;;4375402;32;20090;-33
2021/04/25 00:15:00;;;;;;;1.00;0.65;;;9.40;55.90;;;;;;4375078;32;20093;-34
2021/04/25 00:17:27;;;;;;;0.98;0.55;;;9.40;56.20;;;;;;4374469;32;20102;-33
2021/04/25 00:19:53;;;;;;;0.90;0.60;;;9.40;56.50;;;;;;4374926;32;20096;-32
2021/04/25 00:22:21;;;;;;;1.30;0.80;;;9.30;56.80;;;;;;4374845;32;20157;-34
2021/04/25 00:24:47;;;;;;;1.00;0.70;;;9.30;57.20;;;;;;4389850;32;20085;-34
2021/04/25 00:27:14;;;;;;;0.62;0.50;;;9.30;57.60;;;;;;4389851;32;20085;-33
2021/04/25 00:29:40;;;;;;;0.62;0.50;;;9.40;57.60;;;;;;4389507;32;20084;-34
2021/04/25 00:32:07;;;;;;;1.85;0.55;;;9.40;57.70;;;;;;4389956;32;20099;-33
2021/04/25 00:34:33;;;;;;;1.08;0.65;;;9.40;57.70;;;;;;4389976;32;20062;-33
2021/04/25 00:37:00;;;;;;;10.68;0.88;;;9.40;57.70;;;;;;4390075;32;20057;-33
2021/04/25 00:39:26;;;;;;;1.10;0.95;;;9.50;57.80;;;;;;4388339;32;20487;-34
2021/04/25 00:41:53;;;;;;;1.50;0.70;;;9.50;57.70;;;;;;4389873;32;20087;-33
2021/04/25 00:44:19;;;;;;;0.62;0.60;;;9.60;57.50;;;;;;4389649;32;20567;-33
2021/04/25 00:46:47;;;;;;;1.20;0.65;;;9.60;57.20;;;;;;4389362;32;20473;-34
2021/04/25 00:49:13;;;;;;;2.00;0.90;;;9.60;56.90;;;;;;4389751;32;20079;-36
2021/04/25 00:51:40;;;;;;;1.95;1.12;;;9.60;56.70;;;;;;4389388;32;20181;-33
2021/04/25 00:54:06;;;;;;;1.00;0.90;;;9.60;56.70;;;;;;4375506;32;20155;-33
2021/04/25 00:56:33;;;;;;;1.30;1.00;;;9.60;56.80;;;;;;4387658;32;20081;-34
2021/04/25 00:58:59;;;;;;;1.67;0.85;;;9.50;56.70;;;;;;4387902;32;20068;-35
2021/04/25 01:01:26;;;;;;;1.25;1.02;;;9.50;56.70;;;;;;4389429;32;20131;-34
2021/04/25 01:03:54;;;;;;;2.55;0.95;;;9.50;56.60;;;;;;4389256;32;20069;-34
2021/04/25 01:06:20;;;;;;;1.17;0.88;;;9.60;56.60;;;;;;4386577;32;20140;-34
2021/04/25 01:08:47;;;;;;;1.10;0.73;;;9.60;56.40;;;;;;4374194;32;20518;-34
2021/04/25 01:11:13;;;;;;;1.37;1.23;;;9.60;56.30;;;;;;4386783;32;20082;-34
2021/04/25 01:13:40;;;;;;;2.92;0.93;;;9.50;56.20;;;;;;4374735;32;20086;-34
2021/04/25 01:16:06;;;;;;;1.23;0.93;;;9.50;56.40;;;;;;4374628;32;20131;-34
2021/04/25 01:18:33;;;;;;;1.40;1.00;;;9.50;56.60;;;;;;4386290;32;20109;-33
2021/04/25 01:21:01;;;;;;;1.83;1.17;;;9.50;56.70;;;;;;4386572;32;20197;-33
2021/04/25 01:23:28;;;;;;;1.70;1.00;;;9.50;56.40;;;;;;4341030;33;20101;-33
2021/04/25 01:25:54;;;;;;;1.42;0.80;;;9.50;57.00;;;;;;4341268;33;20074;-33
2021/04/25 01:28:21;;;;;;;1.33;1.00;;;9.60;56.40;;;;;;4341340;32;20075;-33
2021/04/25 01:30:47;;;;;;;1.33;0.90;;;9.60;56.60;;;;;;4329651;33;20063;-32
2021/04/25 01:33:14;;;;;;;2.47;1.10;;;9.60;56.60;;;;;;4341489;33;20083;-35
2021/04/25 01:35:40;;;;;;;2.03;1.15;;;9.60;56.40;;;;;;4317165;33;20159;-33
2021/04/25 01:38:07;;;;;;;1.40;1.30;;;9.60;56.20;;;;;;4341364;33;20117;-33
2021/04/25 01:40:33;;;;;;;1.40;1.08;;;9.60;56.00;;;;;;4341469;33;20109;-32
2021/04/25 01:43:00;;;;;;;1.77;1.20;;;9.60;55.80;;;;;;4344010;32;20074;-33
2021/04/25 01:45:28;;;;;;;2.58;1.35;;;9.60;55.70;;;;;;4356404;32;20506;-33
2021/04/25 01:47:58;;;;;;;4.85;1.50;;;9.60;55.70;;;;;;4356140;32;20066;-33
2021/04/25 01:50:26;;;;;;;2.67;1.10;;;9.60;55.70;;;;;;4356103;32;20535;-33
2021/04/25 01:52:53;;;;;;;2.97;1.42;;;9.50;55.70;;;;;;4355964;32;20070;-34
2021/04/25 01:55:21;;;;;;;3.50;1.77;;;9.50;55.80;;;;;;4356265;32;20144;-32
2021/04/25 01:57:48;;;;;;;5.18;1.58;;;9.50;55.90;;;;;;4356524;32;20141;-32
2021/04/25 02:00:18;;;;;;;2.03;1.07;;;9.50;56.00;;;;;;4348094;32;20127;-31
2021/04/25 02:02:45;;;;;;;2.65;1.40;;;9.50;56.00;;;;;;4373914;32;20147;-31
2021/04/25 02:05:12;;;;;;;3.50;1.50;;;9.50;56.00;;;;;;4373572;32;20072;-31
2021/04/25 02:07:39;;;;;;;3.47;2.10;;;9.50;56.00;;;;;;4371875;32;20065;-31
2021/04/25 02:10:07;;;;;;;1.90;1.52;;;9.50;55.90;;;;;;4373392;32;20664;-31
2021/04/25 02:12:34;;;;;;;2.65;1.40;;;9.60;56.00;;;;;;4371860;32;20156;-30
2021/04/25 02:15:00;;;;;;;2.17;1.92;;;9.60;55.90;;;;;;4373515;32;20501;-31
2021/04/25 02:17:27;;;;;;;3.37;1.50;;;9.60;56.00;;;;;;4372753;32;20071;-33
2021/04/25 02:19:53;;;;;;;1.37;1.10;;;9.70;55.90;;;;;;4373177;32;20094;-31
2021/04/25 02:22:20;;;;;;;1.65;1.20;;;9.80;56.00;;;;;;4373441;32;20106;-31
2021/04/25 02:24:46;;;;;;;4.30;1.45;;;10.00;55.70;;;;;;4386560;32;20481;-34
2021/04/25 02:27:13;;;;;;;1.20;1.10;;;10.20;55.60;;;;;;4388217;32;20607;-31
2021/04/25 02:29:39;;;;;;;3.55;1.05;;;10.40;54.90;;;;;;4388062;32;20136;-32
2021/04/25 02:32:06;;;;;;;2.33;0.80;;;10.70;54.90;;;;;;4386577;32;20053;-32
2021/04/25 02:34:32;;;;;;;1.15;0.90;;;11.00;54.10;;;;;;4387817;32;20558;-32
2021/04/25 02:36:59;;;;;;;1.00;0.90;;;11.30;53.30;;;;;;4387948;32;20081;-32
2021/04/25 02:39:25;;;;;;;1.20;1.00;;;11.60;52.50;;;;;;4387935;32;20173;-32
2021/04/25 02:41:53;;;;;;;1.35;0.90;;;11.90;52.10;;;;;;4387386;32;20475;-32
2021/04/25 02:44:20;;;;;;;1.12;1.00;;;12.10;50.80;;;;;;4386445;32;20088;-31
2021/04/25 02:46:46;;;;;;;3.20;1.05;;;12.30;50.10;;;;;;4388121;32;20060;-32
2021/04/25 02:49:13;;;;;;;1.00;0.85;;;12.40;49.50;;;;;;4387900;32;20150;-36
2021/04/25 02:51:39;;;;;;;0.90;0.85;;;12.60;48.90;;;;;;4388088;32;20077;-31
2021/04/25 02:54:06;;;;;;;1.65;0.80;;;12.70;48.40;;;;;;4387597;32;20076;-31
2021/04/25 02:56:32;;;;;;;1.55;0.93;;;12.80;48.10;;;;;;4388225;32;20077;-36
2021/04/25 02:58:58;;;;;;;2.67;0.90;;;12.90;48.00;;;;;;4387769;32;20185;-35
2021/04/25 03:01:25;;;;;;;3.37;1.00;;;13.00;47.50;;;;;;4388173;32;20074;-31
2021/04/25 03:03:51;;;;;;;2.22;1.27;;;13.10;47.00;;;;;;4387682;32;20139;-32
2021/04/25 03:06:17;;;;;;;0.88;0.70;;;13.20;46.20;;;;;;4388231;32;20162;-32
2021/04/25 03:08:44;;;;;;;2.47;1.00;;;13.20;46.60;;;;;;4388045;32;20070;-32
2021/04/25 03:11:11;;;;;;;1.92;0.90;;;13.20;45.80;;;;;;4386179;32;20068;-32
2021/04/25 03:13:37;;;;;;;1.33;1.00;;;13.20;45.60;;;;;;4387781;32;20450;-32
2021/04/25 03:16:04;;;;;;;2.60;0.95;;;13.00;45.40;;;;;;4386320;32;20111;-34
2021/04/25 03:18:30;;;;;;;1.10;0.90;;;12.90;45.60;;;;;;4387973;32;20137;-34
2021/04/25 03:20:57;;;;;;;1.00;0.77;;;12.80;45.70;;;;;;4387882;32;20649;-33
2021/04/25 03:23:23;;;;;;;1.80;1.05;;;12.60;45.90;;;;;;4387914;32;20101;-32
2021/04/25 03:25:50;;;;;;;3.10;0.95;;;12.50;46.20;;;;;;4387735;32;20074;-36
2021/04/25 03:28:16;;;;;;;2.35;0.98;;;12.40;46.50;;;;;;4388136;32;20069;-34
2021/04/25 03:30:43;;;;;;;1.87;0.70;;;12.40;46.90;;;;;;4387631;32;20211;-33
2021/04/25 03:33:09;;;;;;;2.50;0.70;;;12.50;46.90;;;;;;4387817;32;20142;-32
2021/04/25 03:35:36;;;;;;;3.17;0.60;;;12.60;46.60;;;;;;4387793;32;20081;-33
2021/04/25 03:38:02;;;;;;;1.48;0.70;;;12.70;46.50;;;;;;4387856;32;20066;-33
2021/04/25 03:40:28;;;;;;;4.18;1.00;;;12.80;45.80;;;;;;4387576;32;20096;-33
2021/04/25 03:42:55;;;;;;;1.00;0.90;;;12.80;46.00;;;;;;4387620;32;20073;-32
2021/04/25 03:45:21;;;;;;;2.12;0.70;;;12.90;45.40;;;;;;4387352;32;20093;-33
2021/04/25 03:47:50;;;;;;;1.10;0.60;;;12.90;45.40;;;;;;4400194;32;20080;-33
2021/04/25 03:50:18;;;;;;;1.17;0.68;;;13.00;45.00;;;;;;4400369;32;20584;-33
2021/04/25 03:52:45;;;;;;;0.90;0.60;;;13.10;44.80;;;;;;4387833;32;20533;-33
2021/04/25 03:55:13;;;;;;;1.50;0.73;;;13.20;44.80;;;;;;4403103;32;20107;-33
2021/04/25 03:57:40;;;;;;;0.70;0.60;;;13.30;44.80;;;;;;4403093;32;20057;-33
2021/04/25 04:00:09;;;;;;;1.92;0.52;;;13.40;44.30;;;;;;4403055;32;20069;-33
2021/04/25 04:02:35;;;;;;;3.47;0.70;;;13.70;44.10;;;;;;4402704;32;20085;-34
2021/04/25 04:05:03;;;;;;;1.20;0.40;;;13.90;43.00;;;;;;4402985;32;20533;-32
2021/04/25 04:07:30;;;;;;;2.37;0.45;;;14.00;42.70;;;;;;4377655;32;20532;-38
2021/04/25 04:09:56;;;;;;;7.57;0.73;;;14.10;42.10;;;;;;4402484;32;20069;-36
2021/04/25 04:12:23;;;;;;;2.05;0.50;;;14.20;42.00;;;;;;4390044;32;20153;-39
2021/04/25 04:14:50;;;;;;;0.52;0.40;;;14.30;41.60;;;;;;4402984;32;20076;-37
2021/04/25 04:17:18;;;;;;;4.00;0.60;;;14.40;41.30;;;;;;4402534;32;20073;-32
2021/04/25 04:19:44;;;;;;;1.87;0.55;;;14.50;40.80;;;;;;4391519;32;20178;-34
2021/04/25 04:22:11;;;;;;;2.83;0.50;;;14.60;40.50;;;;;;4389960;32;20081;-33
2021/04/25 04:24:38;;;;;;;1.20;0.50;;;14.70;40.00;;;;;;4375719;32;20055;-32
2021/04/25 04:27:05;;;;;;;0.70;0.40;;;14.80;39.30;;;;;;4360930;32;20074;-32
2021/04/25 04:29:32;;;;;;;2.95;0.52;;;14.90;38.80;;;;;;4374786;32;20130;-33
2021/04/25 04:31:59;;;;;;;1.12;0.30;;;14.90;38.60;;;;;;4374436;32;20571;-33
2021/04/25 04:34:26;;;;;;;0.50;0.32;;;14.90;38.20;;;;;;4372965;32;20063;-33
2021/04/25 04:36:53;;;;;;;3.80;0.50;;;14.90;38.00;;;;;;4375119;32;20177;-34
2021/04/25 04:39:19;;;;;;;10.15;0.50;;;14.80;37.90;;;;;;4361083;32;20068;-32
2021/04/25 04:41:46;;;;;;;0.60;0.40;;;14.90;38.00;;;;;;4374782;32;20072;-36
2021/04/25 04:44:12;;;;;;;2.05;0.40;;;15.00;37.90;;;;;;4374588;32;20066;-33
2021/04/25 04:46:39;;;;;;;1.58;0.30;;;15.10;36.60;;;;;;4374215;32;20082;-32
2021/04/25 04:49:05;;;;;;;6.03;0.50;;;15.20;36.60;;;;;;4374272;32;20058;-32
2021/04/25 04:51:33;;;;;;;3.40;0.40;;;15.30;36.60;;;;;;4374158;32;20149;-32
2021/04/25 04:53:59;;;;;;;1.50;0.68;;;15.50;35.70;;;;;;4373686;32;20074;-33
2021/04/25 04:56:26;;;;;;;3.50;0.40;;;15.70;35.60;;;;;;4374074;32;20050;-34
2021/04/25 04:58:52;;;;;;;3.55;0.40;;;15.80;35.40;;;;;;4372972;32;20085;-32
2021/04/25 05:01:19;;;;;;;1.08;0.35;;;16.00;35.20;;;;;;4373755;32;20089;-32
2021/04/25 05:03:45;;;;;;;3.17;0.30;;;16.10;34.60;;;;;;4373840;32;20070;-32
2021/04/25 05:06:12;;;;;;;2.08;0.32;;;16.10;34.20;;;;;;4373960;32;20098;-33
2021/04/25 05:08:38;;;;;;;3.70;0.37;;;16.10;33.70;;;;;;4373878;32;20113;-32
2021/04/25 05:11:04;;;;;;;3.30;0.30;;;16.10;33.70;;;;;;4374029;32;20511;-32
2021/04/25 05:13:31;;;;;;;0.40;0.40;;;16.00;33.70;;;;;;4373913;32;20059;-32
2021/04/25 05:15:57;;;;;;;2.78;0.37;;;16.00;33.70;;;;;;4373600;32;20512;-32
2021/04/25 05:18:24;;;;;;;1.37;0.32;;;16.00;33.60;;;;;;4374339;32;20579;-31
2021/04/25 05:20:50;;;;;;;1.10;0.35;;;16.00;33.30;;;;;;4374088;32;20090;-32
2021/04/25 05:23:17;;;;;;;1.65;0.55;;;15.80;32.40;;;;;;4379928;32;20075;-33
2021/04/25 05:25:43;;;;;;;2.80;0.30;;;15.60;32.70;;;;;;4388586;32;20077;-33
2021/04/25 05:28:10;;;;;;;6.03;0.50;;;15.30;33.50;;;;;;4388966;32;20061;-31
2021/04/25 05:30:36;;;;;;;0.95;0.30;;;15.00;33.30;;;;;;4388479;32;20063;-35
2021/04/25 05:33:03;;;;;;;1.45;0.40;;;14.70;33.80;;;;;;4389191;32;20073;-31
2021/04/25 05:35:29;;;;;;;4.65;0.77;;;14.30;34.70;;;;;;4388785;32;20550;-31
2021/04/25 05:37:56;;;;;;;1.40;0.20;;;14.10;35.60;;;;;;4389161;32;20525;-32
2021/04/25 05:40:22;;;;;;;1.48;0.40;;;13.80;36.00;;;;;;4388885;32;20236;-32
2021/04/25 05:42:49;;;;;;;0.77;0.47;;;13.60;36.70;;;;;;4388847;32;20100;-31
2021/04/25 05:45:22;;;;;;;1.77;0.60;;;13.30;37.40;;;;;;4388326;32;20066;-32
2021/04/25 05:47:58;;;;;;;4.97;0.30;;;13.10;38.00;;;;;;4388953;32;20086;-32
2021/04/25 05:50:28;;;;;;;2.03;0.40;;;12.80;38.70;;;;;;4387498;32;20073;-31
2021/04/25 05:52:54;;;;;;;2.58;0.45;;;12.60;39.30;;;;;;4387716;32;20062;-31
2021/04/25 05:55:21;;;;;;;16.92;0.73;;;12.40;39.30;;;;;;4388519;32;20065;-31
2021/04/25 05:57:48;;;;;;;0.43;0.25;;;12.20;39.40;;;;;;4388262;32;20137;-31
2021/04/25 06:00:24;;;;;;;4.22;0.30;;;12.10;39.10;;;;;;4386713;32;20553;-31
2021/04/25 06:02:52;;;;;;;2.08;0.30;;;12.00;39.20;;;;;;4388568;32;20513;-31
2021/04/25 06:05:19;;;;;;;0.47;0.30;;;11.90;39.50;;;;;;4388175;32;20149;-33
2021/04/25 06:07:46;;;;;;;1.92;0.40;;;11.80;39.60;;;;;;4388401;32;20058;-33
2021/04/25 06:10:13;;;;;;;1.62;0.60;;;11.70;40.00;;;;;;4388207;32;20073;-33
2021/04/25 06:12:39;;;;;;;4.55;0.30;;;11.60;40.30;;;;;;4386998;32;20109;-33
2021/04/25 06:15:07;;;;;;;3.60;0.30;;;11.50;40.60;;;;;;4387833;32;20077;-33
2021/04/25 06:17:34;;;;;;;1.17;0.30;;;11.40;40.60;;;;;;4387869;32;20086;-31
2021/04/25 06:20:00;;;;;;;0.52;0.20;;;11.30;40.80;;;;;;4387004;32;20058;-33
2021/04/25 06:22:27;;;;;;;0.62;0.30;;;11.30;40.80;;;;;;4387112;32;20497;-33
2021/04/25 06:24:55;;;;;;;1.60;0.28;;;11.20;41.00;;;;;;4373011;32;20062;-32
2021/04/25 06:27:24;;;;;;;6.12;0.75;;;11.20;41.30;;;;;;4372989;32;20101;-31
2021/04/25 06:29:51;;;;;;;3.75;0.40;;;11.20;41.40;;;;;;4373254;32;20078;-33
2021/04/25 06:32:17;;;;;;;3.45;0.20;;;11.30;41.60;;;;;;4372984;32;20074;-33
2021/04/25 06:34:44;;;;;;;1.67;0.30;;;11.40;41.90;;;;;;4372956;32;20066;-37
2021/04/25 06:37:11;;;;;;;1.75;0.30;;;11.40;41.50;;;;;;4372825;32;20078;-35
2021/04/25 06:39:37;;;;;;;4.12;0.35;;;11.40;41.40;;;;;;4371167;32;20061;-36
2021/04/25 06:42:04;;;;;;;0.22;0.20;;;11.50;41.70;;;;;;4373185;32;20158;-38
2021/04/25 06:44:30;;;;;;;3.05;0.40;;;11.60;41.50;;;;;;4371106;32;20546;-36
2021/04/25 06:46:57;;;;;;;2.87;0.43;;;11.70;41.50;;;;;;4373192;32;20086;-33
2021/04/25 06:49:23;;;;;;;1.85;0.30;;;11.70;41.40;;;;;;4372498;32;20065;-34
2021/04/25 06:51:50;;;;;;;1.15;0.35;;;11.90;41.50;;;;;;4372800;32;20514;-34
2021/04/25 06:54:16;;;;;;;0.73;0.22;;;12.00;41.10;;;;;;4373189;32;20061;-34
2021/04/25 06:56:43;;;;;;;1.58;0.30;;;12.10;41.00;;;;;;4372752;32;20153;-33
2021/04/25 06:59:10;;;;;;;2.85;0.20;;;12.10;40.90;;;;;;4372740;32;20159;-34
2021/04/25 07:01:36;;;;;;;0.93;0.20;;;12.10;40.90;;;;;;4372740;32;20471;-33
2021/04/25 07:04:03;;;;;;;3.58;0.30;;;12.10;40.60;;;;;;4372715;32;20054;-36
2021/04/25 07:06:30;;;;;;;0.73;0.30;;;12.20;40.20;;;;;;4372892;32;20093;-32
2021/04/25 07:08:56;;;;;;;1.80;0.30;;;12.20;40.00;;;;;;4371132;32;20081;-34
2021/04/25 07:11:23;;;;;;;1.02;0.25;;;12.20;40.30;;;;;;4372388;32;20094;-35
2021/04/25 07:13:49;;;;;;;1.77;0.30;;;12.20;40.40;;;;;;4372912;32;20144;-36
2021/04/25 07:16:16;;;;;;;1.00;0.32;;;12.20;39.90;;;;;;4372571;32;20059;-33
2021/04/25 07:18:42;;;;;;;5.40;0.30;;;12.20;39.80;;;;;;4372555;32;20560;-34
2021/04/25 07:21:09;;;;;;;0.47;0.40;;;12.30;39.30;;;;;;4372836;32;20073;-33
2021/04/25 07:23:35;;;;;;;1.55;0.30;;;12.30;39.10;;;;;;4380485;32;20550;-35
2021/04/25 07:26:02;;;;;;;1.87;0.30;;;12.40;39.40;;;;;;4387887;32;20166;-34
2021/04/25 07:28:28;;;;;;;1.73;0.40;;;12.50;39.30;;;;;;4390464;32;20537;-34
2021/04/25 07:30:54;;;;;;;2.75;0.90;;;12.50;39.50;;;;;;4390435;32;20081;-34
2021/04/25 07:33:21;;;;;;;12.70;0.40;;;12.70;39.50;;;;;;4390550;32;20089;-35
2021/04/25 07:35:47;;;;;;;4.57;0.47;;;12.80;39.00;;;;;;4390728;32;20131;-32
2021/04/25 07:38:14;;;;;;;0.50;0.40;;;12.90;38.80;;;;;;4390445;32;20070;-34
2021/04/25 07:40:41;;;;;;;4.05;0.50;;;12.90;38.40;;;;;;4390503;32;20127;-35
2021/04/25 07:43:07;;;;;;;0.77;0.30;;;12.90;38.10;;;;;;4390211;32;20076;-33
2021/04/25 07:45:34;;;;;;;4.03;0.32;;;12.90;37.90;;;;;;4390569;32;20066;-33
2021/04/25 07:48:01;;;;;;;4.15;0.30;;;13.00;37.70;;;;;;4390399;32;20538;-32
2021/04/25 07:50:27;;;;;;;6.18;0.30;;;13.10;37.40;;;;;;4390047;32;20069;-34
2021/04/25 07:52:54;;;;;;;1.75;0.28;;;13.10;37.30;;;;;;4389938;32;20492;-35
2021/04/25 07:55:20;;;;;;;9.55;0.40;;;13.20;37.00;;;;;;4390073;32;20058;-35
2021/04/25 07:57:47;;;;;;;4.57;0.40;;;13.20;37.00;;;;;;4390011;32;20086;-35
2021/04/25 08:00:14;;;;;;;2.22;0.90;;;13.20;37.20;;;;;;4389860;32;20145;-33
2021/04/25 08:02:41;;;;;;;4.82;0.30;;;13.30;37.50;;;;;;4390301;32;20074;-33
2021/04/25 08:05:08;;;;;;;1.55;0.30;;;13.40;37.20;;;;;;4390069;32;20072;-34
2021/04/25 08:07:35;;;;;;;1.27;0.22;;;13.50;36.80;;;;;;4390250;32;20615;-34
2021/04/25 08:10:01;;;;;;;1.23;0.62;;;13.70;36.50;;;;;;4390372;32;20516;-34
2021/04/25 08:12:28;;;;;;;3.97;0.32;;;13.90;36.30;;;;;;4389901;32;20108;-34
2021/04/25 08:14:54;;;;;;;3.30;0.30;;;13.90;35.80;;;;;;4389977;32;20065;-33
2021/04/25 08:17:21;;;;;;;1.42;0.25;;;14.00;35.30;;;;;;4390150;32;20454;-34
2021/04/25 08:19:47;;;;;;;0.60;0.30;;;14.00;35.20;;;;;;4389730;32;20069;-34
2021/04/25 08:22:14;;;;;;;0.93;0.30;;;13.90;35.40;;;;;;4389823;32;20090;-34
2021/04/25 08:24:40;;;;;;;4.32;0.30;;;13.90;35.40;;;;;;4374993;32;20055;-33
2021/04/25 08:27:07;;;;;;;3.65;0.30;;;13.90;35.60;;;;;;4374921;32;20139;-35
2021/04/25 08:29:33;;;;;;;3.58;0.30;;;13.90;35.20;;;;;;4374721;32;20119;-37
2021/04/25 08:32:00;;;;;;;1.65;0.30;;;13.90;35.50;;;;;;4374620;32;20055;-36
2021/04/25 08:34:27;;;;;;;1.40;0.20;;;13.80;35.30;;;;;;4374661;32;20471;-35
2021/04/25 08:36:53;;;;;;;3.50;0.30;;;13.90;35.60;;;;;;4373362;32;20051;-35
2021/04/25 08:39:20;;;;;;;3.03;0.30;;;13.90;35.60;;;;;;4373822;32;20077;-35
2021/04/25 08:41:47;;;;;;;6.12;0.32;;;14.00;35.40;;;;;;4374423;32;20063;-35
2021/04/25 08:44:20;;;;;;;0.47;0.20;;;14.10;35.40;;;;;;4374286;32;20215;-34
2021/04/25 08:46:49;;;;;;;1.65;0.30;;;14.10;35.20;;;;;;4372669;32;20507;-35
2021/04/25 08:49:23;;;;;;;1.98;0.20;;;14.00;34.90;;;;;;4374320;32;20080;-36
2021/04/25 08:51:51;;;;;;;1.02;0.10;;;14.00;35.20;;;;;;4373040;32;20576;-38
2021/04/25 08:54:24;;;;;;;0.20;0.20;;;14.00;35.50;;;;;;4374289;32;20069;-35
2021/04/25 08:56:51;;;;;;;0.65;0.30;;;13.90;35.50;;;;;;4372816;32;20074;-38
2021/04/25 08:59:18;;;;;;;1.52;0.30;;;13.90;35.60;;;;;;4372300;32;20070;-38
2021/04/25 09:01:45;;;;;;;2.03;0.28;;;13.80;35.80;;;;;;4372683;32;20608;-39
2021/04/25 09:04:11;;;;;;;2.60;0.30;;;13.70;35.80;;;;;;4372519;32;20198;-36
2021/04/25 09:07:00;;;;;;;3.40;0.25;;;13.70;35.90;;;;;;4372610;32;20069;-34
2021/04/25 09:09:59;;;;;;;0.52;0.20;;;13.70;35.90;;;;;;4373504;32;20117;-34
2021/04/25 09:12:41;;;;;;;0.28;0.15;;;13.60;35.90;;;;;;4372642;32;20093;-34
2021/04/25 09:15:10;;;;;;;0.65;0.20;;;13.50;36.30;;;;;;4374266;32;20171;-34
2021/04/25 09:18:01;;;;;;;2.87;1.23;;;13.50;36.40;;;;;;4374128;32;20086;-35
2021/04/25 09:20:37;;;;;;;1.30;0.20;;;13.40;36.90;;;;;;4373509;32;20055;-34
2021/04/25 09:23:08;;;;;;;0.55;0.30;;;13.40;37.00;;;;;;4378269;32;20077;-34
2021/04/25 09:25:34;;;;;;;3.28;0.20;;;13.30;37.20;;;;;;4388875;32;20139;-35
2021/04/25 09:28:17;;;;;;;0.90;0.47;;;13.20;37.40;;;;;;4389245;32;20166;-36
2021/04/25 09:31:07;;;;;;;0.62;0.20;;;13.30;37.70;;;;;;4388520;32;20096;-35
2021/04/25 09:33:58;;;;;;;2.60;0.20;;;13.30;37.80;;;;;;4388753;32;20106;-35
2021/04/25 09:36:28;;;;;;;2.42;0.30;;;13.40;37.80;;;;;;4388731;32;20090;-34
2021/04/25 09:39:17;;;;;;;3.20;0.40;;;13.60;37.70;;;;;;4388923;32;20050;-33
2021/04/25 09:41:43;;;;;;;0.65;0.30;;;13.70;37.80;;;;;;4388635;32;20179;-37
2021/04/25 09:44:33;;;;;;;1.75;0.22;;;13.80;37.60;;;;;;4388748;32;20061;-35
2021/04/25 09:47:02;;;;;;;1.80;0.30;;;13.90;37.60;;;;;;4357938;32;20062;-34
2021/04/25 09:49:49;;;;;;;1.77;0.40;;;14.00;37.30;;;;;;4358417;32;20541;-34
2021/04/25 09:52:37;;;;;;;3.60;0.32;;;14.00;37.40;;;;;;4357122;32;20169;-34
2021/04/25 09:55:17;;;;;;;2.92;0.30;;;14.00;37.40;;;;;;4359185;32;20085;-35
2021/04/25 09:57:44;;;;;;;1.55;0.30;;;14.00;37.40;;;;;;4358848;32;20066;-35
2021/04/25 10:00:12;;;;;;;0.80;0.60;;;14.00;37.50;;;;;;4358782;32;20082;-35
2021/04/25 10:03:00;;;;;;;0.40;0.37;;;14.00;37.60;;;;;;4358863;32;20063;-36
2021/04/25 10:05:28;;;;;;;1.30;0.25;;;14.00;37.80;;;;;;4358360;32;20581;-33
2021/04/25 10:07:55;;;;;;;0.70;0.65;;;14.00;37.70;;;;;;4358431;32;20637;-39
2021/04/25 10:10:22;;;;;;;3.80;0.30;;;14.00;37.90;;;;;;4356562;32;20086;-40
2021/04/25 10:12:49;;;;;;;2.45;0.30;;;14.20;38.10;;;;;;4358055;32;20502;-37
2021/04/25 10:15:16;;;;;;;5.50;0.47;;;14.30;37.40;;;;;;4358308;32;20168;-36
2021/04/25 10:17:51;;;;;;;4.00;0.30;;;14.40;37.30;;;;;;4357998;32;20066;-38
2021/04/25 10:20:20;;;;;;;0.37;0.28;;;14.60;36.80;;;;;;4358046;32;20540;-36
2021/04/25 10:22:49;;;;;;;0.50;0.30;;;14.60;36.20;;;;;;4358440;32;20047;-38
2021/04/25 10:25:36;;;;;;;4.22;0.30;;;14.70;35.80;;;;;;4356466;32;20539;-36
2021/04/25 10:28:36;;;;;;;0.55;0.37;;;14.70;35.50;;;;;;4356127;32;20182;-35
2021/04/25 10:31:09;;;;;;;0.47;0.22;;;14.70;35.30;;;;;;4357025;32;20058;-34
2021/04/25 10:34:02;;;;;;;5.87;0.40;;;14.70;35.40;;;;;;4344124;32;20185;-34
2021/04/25 10:36:47;;;;;;;3.28;0.25;;;14.80;35.30;;;;;;4357733;32;20098;-35
2021/04/25 10:39:49;;;;;;;0.32;0.22;;;14.80;35.00;;;;;;4358524;32;20086;-34
2021/04/25 10:45:02;;;;;;;0.80;0.25;;;14.70;34.80;;;;;;4359102;32;20547;-34
2021/04/25 10:47:32;;;;;;;2.87;0.30;;;14.70;34.70;;;;;;4372749;32;20042;-34
2021/04/25 10:50:01;;;;;;;0.50;0.30;;;14.60;34.80;;;;;;4372720;32;20165;-33
2021/04/25 10:52:32;;;;;;;1.87;0.37;;;14.60;34.80;;;;;;4372698;32;20081;-35
2021/04/25 10:55:17;;;;;;;5.47;0.30;;;14.60;34.60;;;;;;4372728;32;20163;-34
2021/04/25 10:58:26;;;;;;;3.10;0.30;;;14.60;34.70;;;;;;4372941;32;20070;-35
2021/04/25 11:00:45;;;;;;;2.42;0.47;;;14.70;34.40;;;;;;4371709;32;20563;-38
2021/04/25 11:03:19;;;;;;;3.10;0.30;;;14.70;34.10;;;;;;4373879;32;20086;-34
2021/04/25 11:05:47;;;;;;;0.43;0.30;;;14.70;34.00;;;;;;4376325;32;20090;-34
2021/04/25 11:08:17;;;;;;;3.87;0.50;;;14.70;33.80;;;;;;4375809;32;20141;-35
2021/04/25 11:10:57;;;;;;;0.45;0.37;;;14.80;33.80;;;;;;4376019;32;20070;-34
2021/04/25 11:16:24;;;;;;;1.83;0.20;;;14.90;33.00;;;;;;4375777;32;20476;-35
2021/04/25 11:18:51;;;;;;;0.65;0.30;;;14.90;33.00;;;;;;4363191;32;20133;-35
2021/04/25 11:21:35;;;;;;;0.20;0.20;;;14.80;32.90;;;;;;4375889;32;20050;-37
2021/04/25 11:24:04;;;;;;;3.85;0.30;;;14.80;33.20;;;;;;4375679;32;20090;-35
2021/04/25 11:26:47;;;;;;;9.10;0.40;;;14.80;33.30;;;;;;4375251;32;20503;-34
2021/04/25 11:29:48;;;;;;;1.02;0.30;;;14.80;32.80;;;;;;4375703;32;20050;-34
2021/04/25 11:32:34;;;;;;;4.43;0.40;;;14.80;32.50;;;;;;4375424;32;20499;-33
2021/04/25 11:35:08;;;;;;;1.48;0.20;;;14.80;32.40;;;;;;4375518;32;20063;-34
2021/04/25 11:37:34;;;;;;;1.12;0.40;;;14.80;32.20;;;;;;4374803;32;20109;-34
2021/04/25 11:40:06;;;;;;;2.50;0.30;;;14.70;32.50;;;;;;4375311;32;20062;-33
2021/04/25 11:42:36;;;;;;;1.08;0.30;;;14.70;32.80;;;;;;4357671;32;20110;-34
2021/04/25 11:45:21;;;;;;;3.03;0.88;;;14.80;33.00;;;;;;4357801;32;20160;-35
2021/04/25 11:47:56;;;;;;;3.60;0.40;;;14.90;32.00;;;;;;4357965;32;20093;-35
2021/04/25 11:50:34;;;;;;;0.73;0.25;;;14.90;32.00;;;;;;4357694;32;20078;-36
2021/04/25 11:53:00;;;;;;;2.50;1.30;;;15.10;31.80;;;;;;4345379;32;20065;-34
2021/04/25 11:55:27;;;;;;;0.32;0.30;;;15.20;31.50;;;;;;4357446;32;20478;-34
2021/04/25 11:57:54;;;;;;;5.95;0.50;;;15.40;30.90;;;;;;4357839;32;20078;-34
2021/04/25 12:00:29;;;;;;;2.62;0.30;;;15.50;30.90;;;;;;4357046;32;20082;-34
2021/04/25 12:03:00;;;;;;;0.88;0.40;;;15.70;30.80;;;;;;4357515;32;20066;-34
2021/04/25 12:05:30;;;;;;;1.35;0.50;;;16.00;30.40;;;;;;4358054;32;20109;-34
2021/04/25 12:08:04;;;;;;;0.93;0.35;;;16.30;29.80;;;;;;4357667;32;20089;-35
2021/04/25 12:10:44;;;;;;;0.60;0.40;;;16.50;29.70;;;;;;4357646;32;20142;-37
2021/04/25 12:13:19;;;;;;;2.15;0.30;;;16.90;29.20;;;;;;4356460;32;20175;-37
2021/04/25 12:15:54;;;;;;;0.32;0.30;;;17.00;28.80;;;;;;4357896;32;20074;-36
2021/04/25 12:18:30;;;;;;;;;;;17.00;28.30;;;;;;4357867;32;20074;-37
2021/04/25 12:21:00;;;;;;;6.37;0.37;;;17.10;28.70;;;;;;4372197;32;20082;-35
2021/04/25 12:23:52;;;;;;;1.35;0.43;;;17.00;28.30;;;;;;4374776;32;20078;-37
2021/04/25 12:26:20;;;;;;;1.42;0.20;;;16.90;28.50;;;;;;4371155;32;20058;-36
2021/04/25 12:28:57;;;;;;;1.62;0.40;;;16.80;28.40;;;;;;4373330;32;20043;-36
2021/04/25 12:31:26;;;;;;;3.33;0.50;;;16.80;28.70;;;;;;4374630;32;20069;-36
2021/04/25 12:33:55;;;;;;;2.17;0.20;;;16.70;28.60;;;;;;4374755;32;20463;-36
2021/04/25 12:36:24;;;;;;;1.37;0.50;;;16.70;28.50;;;;;;4375082;32;20138;-35
2021/04/25 12:39:02;;;;;;;3.92;0.40;;;16.70;28.40;;;;;;4375032;32;20130;-36
2021/04/25 12:41:52;;;;;;;3.22;0.30;;;16.60;28.20;;;;;;4374475;32;20165;-36
2021/04/25 12:44:20;;;;;;;0.22;0.20;;;16.60;28.30;;;;;;4374175;32;20125;-36
2021/04/25 12:46:55;;;;;;;3.65;0.20;;;16.60;28.40;;;;;;4374043;32;20064;-36
2021/04/25 12:49:42;;;;;;;2.30;0.20;;;16.60;28.30;;;;;;4374808;32;20074;-35
2021/04/25 12:52:09;;;;;;;0.90;0.20;;;16.50;28.30;;;;;;4373644;32;20155;-36
2021/04/25 12:54:45;;;;;;;2.85;0.30;;;16.50;28.60;;;;;;4374055;32;20094;-35
2021/04/25 12:57:12;;;;;;;1.25;0.20;;;16.30;28.90;;;;;;4374251;32;20046;-36
2021/04/25 12:59:39;;;;;;;3.20;0.20;;;16.20;29.00;;;;;;4374156;32;20081;-39
2021/04/25 13:02:17;;;;;;;2.62;0.30;;;16.10;29.10;;;;;;4374286;32;20296;-36
2021/04/25 13:04:51;;;;;;;0.68;0.20;;;16.10;29.30;;;;;;4374083;32;20105;-34